createdAt,value
2023-03-24T00:00:52.990Z,16.37
2023-03-24T00:01:40.025Z,16.38
2023-03-24T00:02:35.044Z,16.31
2023-03-24T00:03:32.261Z,16.40
2023-03-24T00:04:26.052Z,16.40
2023-03-24T00:05:21.017Z,16.33
2023-03-24T00:06:19.985Z,16.41
2023-03-24T00:07:01.006Z,16.40
2023-03-24T00:07:41.220Z,16.39
2023-03-24T00:08:23.994Z,16.53
2023-03-24T00:09:04.180Z,16.53
2023-03-24T00:09:43.983Z,16.58
2023-03-24T00:10:30.704Z,16.56
2023-03-24T00:11:15.988Z,16.45
2023-03-24T00:11:56.146Z,16.46
2023-03-24T00:12:37.038Z,16.42
2023-03-24T00:13:17.103Z,16.46
2023-03-24T00:13:56.988Z,16.56
2023-03-24T00:14:38.612Z,16.59
2023-03-24T00:15:25.008Z,16.56
2023-03-24T00:16:06.156Z,16.53
2023-03-24T00:16:51.983Z,16.68
2023-03-24T00:17:32.283Z,16.48
2023-03-24T00:18:17.001Z,16.57
2023-03-24T00:18:58.240Z,16.53
2023-03-24T00:19:39.975Z,16.27
2023-03-24T00:20:22.268Z,16.45
2023-03-24T00:21:04.969Z,16.54
2023-03-24T00:21:46.087Z,16.36
2023-03-24T00:22:28.026Z,16.45
2023-03-24T00:23:08.081Z,16.15
2023-03-24T00:23:50.017Z,16.23
2023-03-24T00:24:30.110Z,16.22
2023-03-24T00:25:10.991Z,16.15
2023-03-24T00:25:53.532Z,16.22
2023-03-24T00:26:34.968Z,16.12
2023-03-24T00:27:15.577Z,16.25
2023-03-24T00:27:58.104Z,16.13
2023-03-24T00:28:42.779Z,16.12
2023-03-24T00:29:23.006Z,16.14
2023-03-24T00:30:03.740Z,16.27
2023-03-24T00:30:44.073Z,16.22
2023-03-24T00:31:25.378Z,16.08
2023-03-24T00:32:06.971Z,16.14
2023-03-24T00:32:47.092Z,16.13
2023-03-24T00:33:27.994Z,15.99
2023-03-24T00:34:08.803Z,16.22
2023-03-24T00:34:50.004Z,16.07
2023-03-24T00:35:31.053Z,16.05
2023-03-24T00:36:15.017Z,16.10
2023-03-24T00:36:57.079Z,16.11
2023-03-24T00:37:37.011Z,16.06
2023-03-24T00:38:17.097Z,16.08
2023-03-24T00:38:58.001Z,16.07
2023-03-24T00:39:40.068Z,16.22
2023-03-24T00:40:25.012Z,16.22
2023-03-24T00:41:05.126Z,16.37
2023-03-24T00:41:44.959Z,16.30
2023-03-24T00:42:25.224Z,16.25
2023-03-24T00:43:05.975Z,16.36
2023-03-24T00:43:39.938Z,16.28
2023-03-24T00:44:29.958Z,16.27
2023-03-24T00:45:06.115Z,16.35
2023-03-24T00:45:52.987Z,16.26
2023-03-24T00:46:29.976Z,16.44
2023-03-24T00:47:04.075Z,16.44
2023-03-24T00:47:45.085Z,16.45
2023-03-24T00:48:24.139Z,16.46
2023-03-24T00:49:05.673Z,16.44
2023-03-24T00:49:49.985Z,16.48
2023-03-24T00:50:27.132Z,16.50
2023-03-24T00:51:09.994Z,16.54
2023-03-24T00:51:51.187Z,16.37
2023-03-24T00:52:32.963Z,16.49
2023-03-24T00:53:15.751Z,16.52
2023-03-24T00:53:55.963Z,16.47
2023-03-24T00:54:36.461Z,16.54
2023-03-24T00:55:21.945Z,16.62
2023-03-24T00:56:03.063Z,16.58
2023-03-24T00:56:47.017Z,16.63
2023-03-24T00:57:29.880Z,16.58
2023-03-24T00:58:10.964Z,16.47
2023-03-24T00:58:51.090Z,16.53
2023-03-24T00:59:30.951Z,16.57
2023-03-24T01:00:19.931Z,16.64
2023-03-24T01:01:02.968Z,16.52
2023-03-24T01:01:43.432Z,16.64
2023-03-24T01:02:29.075Z,16.55
2023-03-24T01:03:09.577Z,16.69
2023-03-24T01:03:57.000Z,16.61
2023-03-24T01:04:38.048Z,16.53
2023-03-24T01:05:18.982Z,16.62
2023-03-24T01:06:03.095Z,16.66
2023-03-24T01:06:44.990Z,16.48
2023-03-24T01:07:25.045Z,16.46
2023-03-24T01:08:09.967Z,16.65
2023-03-24T01:08:53.831Z,16.77
2023-03-24T01:09:33.942Z,16.64
2023-03-24T01:10:20.047Z,16.63
2023-03-24T01:11:01.016Z,16.63
2023-03-24T01:11:47.080Z,16.73
2023-03-24T01:12:27.936Z,16.72
2023-03-24T01:13:16.953Z,16.77
2023-03-24T01:13:52.259Z,16.79
2023-03-24T01:14:38.928Z,16.84
2023-03-24T01:15:16.886Z,16.87
2023-03-24T01:16:05.014Z,16.94
2023-03-24T01:16:39.387Z,16.91
2023-03-24T01:17:28.997Z,16.74
2023-03-24T01:18:03.133Z,16.64
2023-03-24T01:18:46.961Z,16.76
2023-03-24T01:19:21.188Z,16.77
2023-03-24T01:19:54.856Z,16.62
2023-03-24T01:20:40.941Z,16.83
2023-03-24T01:21:16.088Z,16.92
2023-03-24T01:21:50.920Z,16.98
2023-03-24T01:22:36.935Z,16.98
2023-03-24T01:23:12.070Z,16.91
2023-03-24T01:23:45.786Z,17.01
2023-03-24T01:24:27.947Z,16.96
2023-03-24T01:25:02.022Z,16.93
2023-03-24T01:25:37.317Z,16.79
2023-03-24T01:26:17.938Z,16.92
2023-03-24T01:26:52.371Z,16.94
2023-03-24T01:27:27.256Z,16.92
2023-03-24T01:28:06.900Z,16.86
2023-03-24T01:28:43.705Z,17.01
2023-03-24T01:29:17.714Z,16.93
2023-03-24T01:29:58.950Z,16.90
2023-03-24T01:30:35.042Z,16.89
2023-03-24T01:31:10.268Z,17.00
2023-03-24T01:31:49.937Z,17.04
2023-03-24T01:32:24.041Z,17.07
2023-03-24T01:32:58.236Z,16.99
2023-03-24T01:33:38.911Z,16.97
2023-03-24T01:34:13.027Z,17.06
2023-03-24T01:34:46.784Z,16.91
2023-03-24T01:35:29.611Z,17.03
2023-03-24T01:36:04.045Z,16.92
2023-03-24T01:36:37.767Z,16.93
2023-03-24T01:37:18.916Z,16.91
2023-03-24T01:37:53.008Z,17.01
2023-03-24T01:38:26.758Z,17.03
2023-03-24T01:39:08.906Z,16.92
2023-03-24T01:39:42.994Z,16.85
2023-03-24T01:40:26.655Z,16.75
2023-03-24T01:41:07.944Z,16.94
2023-03-24T01:41:46.157Z,16.87
2023-03-24T01:42:23.732Z,16.81
2023-03-24T01:43:04.912Z,16.58
2023-03-24T01:43:42.005Z,16.75
2023-03-24T01:44:44.906Z,16.75
2023-03-24T01:45:49.023Z,16.80
2023-03-24T01:46:29.925Z,16.77
2023-03-24T01:47:14.019Z,16.78
2023-03-24T01:47:54.911Z,16.78
2023-03-24T01:48:43.017Z,16.69
2023-03-24T01:49:24.923Z,16.69
2023-03-24T01:50:08.007Z,16.75
2023-03-24T01:50:52.915Z,16.54
2023-03-24T01:51:50.914Z,16.64
2023-03-24T01:52:49.898Z,16.50
2023-03-24T01:53:46.881Z,16.61
2023-03-24T01:54:54.912Z,16.77
2023-03-24T01:55:48.901Z,16.63
2023-03-24T01:56:48.955Z,16.79
2023-03-24T01:57:48.889Z,16.81
2023-03-24T01:58:34.040Z,16.73
2023-03-24T01:59:25.881Z,16.63
2023-03-24T02:00:11.555Z,16.65
2023-03-24T02:00:52.982Z,16.79
2023-03-24T02:01:37.046Z,16.60
2023-03-24T02:02:19.928Z,16.80
2023-03-24T02:03:08.024Z,16.56
2023-03-24T02:03:48.969Z,16.48
2023-03-24T02:04:29.069Z,16.58
2023-03-24T02:05:15.880Z,16.66
2023-03-24T02:06:02.185Z,16.56
2023-03-24T02:06:47.877Z,16.43
2023-03-24T02:08:13.926Z,16.68
2023-03-24T02:09:10.896Z,16.62
2023-03-24T02:10:04.921Z,16.76
2023-03-24T02:10:58.884Z,16.53
2023-03-24T02:11:53.877Z,16.67
2023-03-24T02:12:47.878Z,16.77
2023-03-24T02:13:34.899Z,16.71
2023-03-24T02:14:11.235Z,16.68
2023-03-24T02:14:58.897Z,16.61
2023-03-24T02:15:35.989Z,16.64
2023-03-24T02:16:58.897Z,16.75
2023-03-24T02:18:06.140Z,16.78
2023-03-24T02:19:46.911Z,16.80
2023-03-24T02:21:05.124Z,16.77
2023-03-24T02:22:57.868Z,16.59
2023-03-24T02:23:55.631Z,16.59
2023-03-24T02:25:18.904Z,16.72
2023-03-24T02:26:04.985Z,16.70
2023-03-24T02:27:42.896Z,16.76
2023-03-24T02:28:56.996Z,16.85
2023-03-24T02:30:00.890Z,16.94
2023-03-24T02:31:04.911Z,16.98
2023-03-24T02:31:58.012Z,17.03
2023-03-24T02:33:24.184Z,16.98
2023-03-24T02:34:18.899Z,17.09
2023-03-24T02:35:19.989Z,17.04
2023-03-24T02:36:33.883Z,17.11
2023-03-24T02:37:47.988Z,17.09
2023-03-24T02:38:59.889Z,17.11
2023-03-24T02:39:51.948Z,17.12
2023-03-24T02:40:47.290Z,17.21
2023-03-24T02:42:10.924Z,17.16
2023-03-24T02:43:11.909Z,17.12
2023-03-24T02:44:07.858Z,17.14
2023-03-24T02:45:20.296Z,17.07
2023-03-24T02:46:46.883Z,17.02
2023-03-24T02:47:43.938Z,17.02
2023-03-24T02:48:29.014Z,17.17
2023-03-24T02:49:35.864Z,17.06
2023-03-24T02:50:36.954Z,17.18
2023-03-24T02:51:38.851Z,17.11
2023-03-24T02:52:32.978Z,17.04
2023-03-24T02:53:38.895Z,17.22
2023-03-24T02:54:51.998Z,17.11
2023-03-24T02:55:59.852Z,17.11
2023-03-24T02:57:00.963Z,17.21
2023-03-24T02:58:00.853Z,17.12
2023-03-24T02:58:59.854Z,17.14
2023-03-24T02:59:53.504Z,17.20
2023-03-24T03:00:56.857Z,17.07
2023-03-24T03:01:41.232Z,17.15
2023-03-24T03:02:45.903Z,17.09
2023-03-24T03:03:28.077Z,17.18
2023-03-24T03:04:30.943Z,17.22
2023-03-24T03:05:14.359Z,17.25
2023-03-24T03:06:32.847Z,17.19
2023-03-24T03:07:10.075Z,17.21
2023-03-24T03:07:58.861Z,17.02
2023-03-24T03:08:34.114Z,17.11
2023-03-24T03:09:25.841Z,17.15
2023-03-24T03:10:22.863Z,17.10
2023-03-24T03:11:04.946Z,17.02
2023-03-24T03:11:47.837Z,17.08
2023-03-24T03:12:29.911Z,17.04
2023-03-24T03:13:17.850Z,16.89
2023-03-24T03:14:40.949Z,17.08
2023-03-24T03:15:25.879Z,17.11
2023-03-24T03:16:14.946Z,16.99
2023-03-24T03:17:18.840Z,16.96
2023-03-24T03:18:27.704Z,17.04
2023-03-24T03:19:10.888Z,17.03
2023-03-24T03:20:06.587Z,16.94
2023-03-24T03:20:56.838Z,17.12
2023-03-24T03:21:44.938Z,17.11
2023-03-24T03:22:31.870Z,16.97
2023-03-24T03:23:19.961Z,16.97
2023-03-24T03:24:14.833Z,17.05
2023-03-24T03:24:58.923Z,17.13
2023-03-24T03:25:44.838Z,17.18
2023-03-24T03:26:30.868Z,17.10
2023-03-24T03:27:14.840Z,17.24
2023-03-24T03:27:49.735Z,17.23
2023-03-24T03:28:31.812Z,17.02
2023-03-24T03:29:18.936Z,17.25
2023-03-24T03:30:18.463Z,17.09
2023-03-24T03:31:06.815Z,17.00
2023-03-24T03:31:55.844Z,17.18
2023-03-24T03:32:36.307Z,16.96
2023-03-24T03:33:33.824Z,17.04
2023-03-24T03:34:34.548Z,17.23
2023-03-24T03:35:42.927Z,17.20
2023-03-24T03:36:32.012Z,17.05
2023-03-24T03:37:49.851Z,17.25
2023-03-24T03:39:06.709Z,17.18
2023-03-24T03:40:07.851Z,17.05
2023-03-24T03:40:56.735Z,17.04
2023-03-24T03:41:44.800Z,16.99
2023-03-24T03:42:19.025Z,16.95
2023-03-24T03:43:05.854Z,17.13
2023-03-24T03:43:39.641Z,17.03
2023-03-24T03:44:26.811Z,17.13
2023-03-24T03:45:00.742Z,17.03
2023-03-24T03:45:48.843Z,17.06
2023-03-24T03:46:22.865Z,17.13
2023-03-24T03:47:09.826Z,17.13
2023-03-24T03:47:43.804Z,17.07
2023-03-24T03:48:32.828Z,17.16
2023-03-24T03:49:07.335Z,16.92
2023-03-24T03:49:53.808Z,16.97
2023-03-24T03:50:27.989Z,16.98
2023-03-24T03:51:15.784Z,17.13
2023-03-24T03:51:50.604Z,16.98
2023-03-24T03:52:37.837Z,16.93
2023-03-24T03:53:13.815Z,16.99
2023-03-24T03:54:04.826Z,17.06
2023-03-24T03:54:38.988Z,16.93
2023-03-24T03:55:12.892Z,16.80
2023-03-24T03:55:53.799Z,16.91
2023-03-24T03:56:32.918Z,16.86
2023-03-24T03:57:06.774Z,16.92
2023-03-24T03:57:47.800Z,16.92
2023-03-24T03:58:21.988Z,16.73
2023-03-24T03:58:55.881Z,16.84
2023-03-24T03:59:43.831Z,16.71
2023-03-24T04:00:26.902Z,16.78
2023-03-24T04:01:00.679Z,16.92
2023-03-24T04:01:43.834Z,16.91
2023-03-24T04:02:53.964Z,16.85
2023-03-24T04:04:13.788Z,16.88
2023-03-24T04:05:54.856Z,16.94
2023-03-24T04:06:53.844Z,16.78
2023-03-24T04:08:35.803Z,16.91
2023-03-24T04:09:25.835Z,16.89
2023-03-24T04:10:26.816Z,16.95
2023-03-24T04:11:39.847Z,16.79
2023-03-24T04:12:34.995Z,16.96
2023-03-24T04:13:36.802Z,16.88
2023-03-24T04:14:27.909Z,16.87
2023-03-24T04:15:34.804Z,16.81
2023-03-24T04:16:22.897Z,16.96
2023-03-24T04:17:32.824Z,16.68
2023-03-24T04:19:00.000Z,16.87
2023-03-24T04:20:03.784Z,16.69
2023-03-24T04:21:33.501Z,16.67
2023-03-24T04:22:36.819Z,16.68
2023-03-24T04:23:58.897Z,16.80
2023-03-24T04:24:46.793Z,16.54
2023-03-24T04:25:36.149Z,16.71
2023-03-24T04:27:06.794Z,16.59
2023-03-24T04:28:03.793Z,16.50
2023-03-24T04:29:13.426Z,16.58
2023-03-24T04:30:20.796Z,16.65
2023-03-24T04:31:24.381Z,16.62
2023-03-24T04:32:47.799Z,16.56
2023-03-24T04:33:37.793Z,16.63
2023-03-24T04:34:37.272Z,16.61
2023-03-24T04:35:47.039Z,16.52
2023-03-24T04:36:42.484Z,16.45
2023-03-24T04:37:32.784Z,16.44
2023-03-24T04:38:23.264Z,16.53
2023-03-24T04:39:05.821Z,16.57
2023-03-24T04:39:49.892Z,16.49
2023-03-24T04:40:30.782Z,16.56
2023-03-24T04:41:14.048Z,16.56
2023-03-24T04:41:55.767Z,16.57
2023-03-24T04:42:48.854Z,16.53
2023-03-24T04:43:33.800Z,16.58
2023-03-24T04:44:20.806Z,16.57
2023-03-24T04:44:57.676Z,16.48
2023-03-24T04:45:47.000Z,16.44
2023-03-24T04:46:22.380Z,16.40
2023-03-24T04:47:12.751Z,16.58
2023-03-24T04:47:55.140Z,16.46
2023-03-24T04:48:41.741Z,16.33
2023-03-24T04:49:15.731Z,16.44
2023-03-24T04:49:55.752Z,16.26
2023-03-24T04:50:43.929Z,16.22
2023-03-24T04:51:20.609Z,16.48
2023-03-24T04:52:01.756Z,16.44
2023-03-24T04:52:35.985Z,16.35
2023-03-24T04:53:10.667Z,16.43
2023-03-24T04:53:51.744Z,16.50
2023-03-24T04:54:28.203Z,16.48
2023-03-24T04:55:30.796Z,16.41
2023-03-24T04:56:41.893Z,16.36
2023-03-24T04:57:21.768Z,16.49
2023-03-24T04:58:01.853Z,16.52
2023-03-24T04:58:41.750Z,16.59
2023-03-24T04:59:22.861Z,16.58
2023-03-24T05:00:03.740Z,16.59
2023-03-24T05:00:50.796Z,16.59
2023-03-24T05:01:30.191Z,16.46
2023-03-24T05:02:11.858Z,16.48
2023-03-24T05:02:52.788Z,16.60
2023-03-24T05:03:37.820Z,16.69
2023-03-24T05:04:18.818Z,16.53
2023-03-24T05:04:58.933Z,16.75
2023-03-24T05:05:39.750Z,16.73
2023-03-24T05:06:20.751Z,16.90
2023-03-24T05:06:55.094Z,16.83
2023-03-24T05:07:41.751Z,16.67
2023-03-24T05:08:16.445Z,16.82
2023-03-24T05:09:05.711Z,16.84
2023-03-24T05:09:39.821Z,16.73
2023-03-24T05:10:27.736Z,16.89
2023-03-24T05:11:02.068Z,16.91
2023-03-24T05:11:42.771Z,16.96
2023-03-24T05:12:22.914Z,16.92
2023-03-24T05:13:03.728Z,16.91
2023-03-24T05:13:44.487Z,16.98
2023-03-24T05:14:25.716Z,16.96
2023-03-24T05:15:06.876Z,16.87
2023-03-24T05:15:47.718Z,16.86
2023-03-24T05:16:28.933Z,17.03
2023-03-24T05:17:08.782Z,17.10
2023-03-24T05:17:48.929Z,16.97
2023-03-24T05:18:29.736Z,16.86
2023-03-24T05:19:11.156Z,16.99
2023-03-24T05:19:51.756Z,17.00
2023-03-24T05:20:32.977Z,17.05
2023-03-24T05:21:13.731Z,16.79
2023-03-24T05:21:54.588Z,16.87
2023-03-24T05:22:34.747Z,17.03
2023-03-24T05:23:14.957Z,16.99
2023-03-24T05:23:55.742Z,17.04
2023-03-24T05:24:35.996Z,17.12
2023-03-24T05:25:16.769Z,16.89
2023-03-24T05:25:56.867Z,17.07
2023-03-24T05:26:37.844Z,17.10
2023-03-24T05:27:17.813Z,17.07
2023-03-24T05:27:58.738Z,16.88
2023-03-24T05:28:38.843Z,16.99
2023-03-24T05:29:18.747Z,17.01
2023-03-24T05:29:58.830Z,16.88
2023-03-24T05:30:39.754Z,17.06
2023-03-24T05:31:20.909Z,16.97
2023-03-24T05:32:01.720Z,17.01
2023-03-24T05:32:44.311Z,16.93
2023-03-24T05:33:26.743Z,16.96
2023-03-24T05:34:07.117Z,16.91
2023-03-24T05:34:46.688Z,16.93
2023-03-24T05:35:27.105Z,16.85
2023-03-24T05:36:07.726Z,16.95
2023-03-24T05:36:47.818Z,16.87
2023-03-24T05:37:28.734Z,16.72
2023-03-24T05:38:08.819Z,17.01
2023-03-24T05:38:48.757Z,16.87
2023-03-24T05:39:28.821Z,17.06
2023-03-24T05:40:09.724Z,16.94
2023-03-24T05:40:49.822Z,16.95
2023-03-24T05:41:29.704Z,16.86
2023-03-24T05:42:10.077Z,16.86
2023-03-24T05:42:50.786Z,17.02
2023-03-24T05:43:31.799Z,16.83
2023-03-24T05:44:12.742Z,16.98
2023-03-24T05:44:52.792Z,16.92
2023-03-24T05:45:33.726Z,16.96
2023-03-24T05:46:14.866Z,16.92
2023-03-24T05:46:54.694Z,16.93
2023-03-24T05:47:34.829Z,16.91
2023-03-24T05:48:15.726Z,17.07
2023-03-24T05:48:55.808Z,17.04
2023-03-24T05:49:35.777Z,17.08
2023-03-24T05:50:16.783Z,16.86
2023-03-24T05:50:59.718Z,16.89
2023-03-24T05:51:39.800Z,17.15
2023-03-24T05:52:26.104Z,17.01
2023-03-24T05:53:07.797Z,17.01
2023-03-24T05:53:47.682Z,17.09
2023-03-24T05:54:27.782Z,17.12
2023-03-24T05:55:08.682Z,17.01
2023-03-24T05:55:48.838Z,17.05
2023-03-24T05:56:29.762Z,17.06
2023-03-24T05:57:11.011Z,17.08
2023-03-24T05:57:50.698Z,16.97
2023-03-24T05:58:30.782Z,17.01
2023-03-24T05:59:11.689Z,16.96
2023-03-24T05:59:53.137Z,16.99
2023-03-24T06:00:33.720Z,16.79
2023-03-24T06:01:18.819Z,16.70
2023-03-24T06:01:59.736Z,16.72
2023-03-24T06:02:40.097Z,16.87
2023-03-24T06:03:20.811Z,16.82
2023-03-24T06:04:01.040Z,16.87
2023-03-24T06:04:41.748Z,16.90
2023-03-24T06:05:23.206Z,16.76
2023-03-24T06:06:03.694Z,16.62
2023-03-24T06:06:58.672Z,16.80
2023-03-24T06:07:54.682Z,16.57
2023-03-24T06:08:53.706Z,16.61
2023-03-24T06:09:48.681Z,16.63
2023-03-24T06:10:44.678Z,16.73
2023-03-24T06:11:26.705Z,16.71
2023-03-24T06:12:10.838Z,16.70
2023-03-24T06:12:52.664Z,16.70
2023-03-24T06:13:32.773Z,16.66
2023-03-24T06:14:15.695Z,16.64
2023-03-24T06:14:55.737Z,16.67
2023-03-24T06:15:37.750Z,16.68
2023-03-24T06:16:18.975Z,16.76
2023-03-24T06:16:59.692Z,16.66
2023-03-24T06:17:43.136Z,16.84
2023-03-24T06:18:24.707Z,16.75
2023-03-24T06:19:06.688Z,16.87
2023-03-24T06:19:55.879Z,16.53
2023-03-24T06:20:36.140Z,16.73
2023-03-24T06:21:17.677Z,16.92
2023-03-24T06:22:09.731Z,16.88
2023-03-24T06:23:05.677Z,16.85
2023-03-24T06:23:59.703Z,16.91
2023-03-24T06:24:56.665Z,16.76
2023-03-24T06:25:50.669Z,16.76
2023-03-24T06:28:27.613Z,16.57
2023-03-24T06:29:24.629Z,16.61
2023-03-24T06:30:21.663Z,16.75
2023-03-24T06:31:21.561Z,16.83
2023-03-24T06:32:01.581Z,16.84
2023-03-24T06:32:43.297Z,16.79
2023-03-24T06:33:24.590Z,16.79
2023-03-24T06:34:04.604Z,16.74
2023-03-24T06:34:40.419Z,16.70
2023-03-24T06:35:27.583Z,16.75
2023-03-24T06:36:02.021Z,16.61
2023-03-24T06:36:48.584Z,16.51
2023-03-24T06:37:22.963Z,16.63
2023-03-24T06:38:10.595Z,16.72
2023-03-24T06:38:45.415Z,16.71
2023-03-24T06:39:25.655Z,16.81
2023-03-24T06:40:12.987Z,16.57
2023-03-24T06:40:53.622Z,16.70
2023-03-24T06:41:33.679Z,16.46
2023-03-24T06:42:13.577Z,16.55
2023-03-24T06:42:53.725Z,16.60
2023-03-24T06:43:33.602Z,16.51
2023-03-24T06:44:13.692Z,16.51
2023-03-24T06:44:53.623Z,16.54
2023-03-24T06:45:34.771Z,16.54
2023-03-24T06:46:16.623Z,16.61
2023-03-24T06:46:56.706Z,16.62
2023-03-24T06:47:36.685Z,16.54
2023-03-24T06:48:16.754Z,16.69
2023-03-24T06:48:57.608Z,16.81
2023-03-24T06:49:37.731Z,16.86
2023-03-24T06:50:18.651Z,16.80
2023-03-24T06:50:59.684Z,16.77
2023-03-24T06:51:40.634Z,16.83
2023-03-24T06:52:20.874Z,16.78
2023-03-24T06:53:00.604Z,16.94
2023-03-24T06:53:41.364Z,16.81
2023-03-24T06:54:22.560Z,16.85
2023-03-24T06:55:02.691Z,16.80
2023-03-24T06:55:43.720Z,16.96
2023-03-24T06:56:23.692Z,16.85
2023-03-24T06:57:04.611Z,16.91
2023-03-24T06:57:44.713Z,17.04
2023-03-24T06:58:25.595Z,16.91
2023-03-24T06:59:05.694Z,16.74
2023-03-24T06:59:45.675Z,16.95
2023-03-24T07:00:26.838Z,16.82
2023-03-24T07:01:08.592Z,16.75
2023-03-24T07:01:49.567Z,16.66
2023-03-24T07:02:52.678Z,16.85
2023-03-24T07:03:48.690Z,16.93
2023-03-24T07:04:42.565Z,16.85
2023-03-24T07:05:36.558Z,16.87
2023-03-24T07:06:24.591Z,17.06
2023-03-24T07:07:14.753Z,16.91
2023-03-24T07:08:30.100Z,16.88
2023-03-24T07:09:01.619Z,17.10
2023-03-24T07:09:48.574Z,17.16
2023-03-24T07:10:22.737Z,17.22
2023-03-24T07:11:10.570Z,17.21
2023-03-24T07:11:51.605Z,17.25
2023-03-24T07:12:45.565Z,17.34
2023-03-24T07:13:39.561Z,17.25
2023-03-24T07:14:33.569Z,17.35
2023-03-24T07:15:27.570Z,17.41
2023-03-24T07:16:22.700Z,17.35
2023-03-24T07:17:10.604Z,17.23
2023-03-24T07:17:44.730Z,17.27
2023-03-24T07:18:32.589Z,17.25
2023-03-24T07:19:06.668Z,17.41
2023-03-24T07:19:53.560Z,17.51
2023-03-24T07:20:27.671Z,17.34
2023-03-24T07:21:14.555Z,17.46
2023-03-24T07:21:50.176Z,17.60
2023-03-24T07:22:31.587Z,17.64
2023-03-24T07:23:11.753Z,17.52
2023-03-24T07:23:52.593Z,17.57
2023-03-24T07:24:32.681Z,17.69
2023-03-24T07:25:14.570Z,17.63
2023-03-24T07:25:54.758Z,17.43
2023-03-24T07:26:35.544Z,17.36
2023-03-24T07:27:15.743Z,17.44
2023-03-24T07:27:56.573Z,17.55
2023-03-24T07:28:36.837Z,17.63
2023-03-24T07:29:18.546Z,17.65
2023-03-24T07:29:58.695Z,17.59
2023-03-24T07:30:51.632Z,17.67
2023-03-24T07:31:47.591Z,17.61
2023-03-24T07:32:45.579Z,17.76
2023-03-24T07:33:26.655Z,17.85
2023-03-24T07:34:06.632Z,17.85
2023-03-24T07:34:47.558Z,17.77
2023-03-24T07:35:27.841Z,17.90
2023-03-24T07:36:07.636Z,17.99
2023-03-24T07:36:47.638Z,17.91
2023-03-24T07:37:28.537Z,18.04
2023-03-24T07:38:10.382Z,17.98
2023-03-24T07:38:51.559Z,17.91
2023-03-24T07:39:45.512Z,17.85
2023-03-24T07:40:41.517Z,17.84
2023-03-24T07:41:36.551Z,17.97
2023-03-24T07:42:30.531Z,18.05
2023-03-24T07:43:25.556Z,18.05
2023-03-24T07:44:12.585Z,18.04
2023-03-24T07:44:46.668Z,18.15
2023-03-24T07:45:34.604Z,17.94
2023-03-24T07:46:09.619Z,18.01
2023-03-24T07:46:57.510Z,17.86
2023-03-24T07:47:31.706Z,17.97
2023-03-24T07:48:19.759Z,17.99
2023-03-24T07:48:53.683Z,18.17
2023-03-24T07:49:34.547Z,18.20
2023-03-24T07:50:15.711Z,17.92
2023-03-24T07:50:56.523Z,18.01
2023-03-24T07:51:39.378Z,18.12
2023-03-24T07:52:20.526Z,18.24
2023-03-24T07:53:00.747Z,18.15
2023-03-24T07:53:40.509Z,18.13
2023-03-24T07:54:21.386Z,18.30
2023-03-24T07:55:02.583Z,18.44
2023-03-24T07:55:45.739Z,18.38
2023-03-24T07:56:25.594Z,18.10
2023-03-24T07:57:08.964Z,18.18
2023-03-24T07:57:53.519Z,18.18
2023-03-24T07:58:33.675Z,18.33
2023-03-24T07:59:16.508Z,18.12
2023-03-24T07:59:56.686Z,18.27
2023-03-24T08:00:39.558Z,18.13
2023-03-24T08:01:20.648Z,18.07
2023-03-24T08:02:02.562Z,18.20
2023-03-24T08:02:42.766Z,18.20
2023-03-24T08:03:23.640Z,18.16
2023-03-24T08:04:04.543Z,18.15
2023-03-24T08:04:44.552Z,18.17
2023-03-24T08:05:29.648Z,18.33
2023-03-24T08:06:11.518Z,18.37
2023-03-24T08:06:53.577Z,18.03
2023-03-24T08:07:34.729Z,18.00
2023-03-24T08:08:14.634Z,18.16
2023-03-24T08:08:55.777Z,18.23
2023-03-24T08:09:35.700Z,18.40
2023-03-24T08:10:22.520Z,18.41
2023-03-24T08:11:02.596Z,18.50
2023-03-24T08:11:43.532Z,18.40
2023-03-24T08:12:23.646Z,18.44
2023-03-24T08:13:05.495Z,18.43
2023-03-24T08:13:45.632Z,18.56
2023-03-24T08:14:26.523Z,18.49
2023-03-24T08:15:07.477Z,18.35
2023-03-24T08:15:48.761Z,18.41
2023-03-24T08:16:29.659Z,18.42
2023-03-24T08:17:10.532Z,18.36
2023-03-24T08:17:51.697Z,18.50
2023-03-24T08:18:32.498Z,18.36
2023-03-24T08:19:12.655Z,18.30
2023-03-24T08:20:00.024Z,18.29
2023-03-24T08:20:41.980Z,18.28
2023-03-24T08:21:21.513Z,18.38
2023-03-24T08:22:02.118Z,18.35
2023-03-24T08:22:45.514Z,18.34
2023-03-24T08:23:25.594Z,18.29
2023-03-24T08:24:06.502Z,18.33
2023-03-24T08:24:46.724Z,18.26
2023-03-24T08:25:30.473Z,18.07
2023-03-24T08:26:10.757Z,18.19
2023-03-24T08:26:53.515Z,18.15
2023-03-24T08:27:47.527Z,18.29
2023-03-24T08:28:41.507Z,18.23
2023-03-24T08:29:35.526Z,18.09
2023-03-24T08:30:33.516Z,17.95
2023-03-24T08:31:27.514Z,18.23
2023-03-24T08:32:21.502Z,18.19
2023-03-24T08:33:11.427Z,18.19
2023-03-24T08:33:47.110Z,18.14
2023-03-24T08:34:35.493Z,18.27
2023-03-24T08:35:10.104Z,18.35
2023-03-24T08:35:58.535Z,18.28
2023-03-24T08:36:32.601Z,18.06
2023-03-24T08:37:19.523Z,18.06
2023-03-24T08:37:53.577Z,18.15
2023-03-24T08:38:37.487Z,18.07
2023-03-24T08:39:17.683Z,18.18
2023-03-24T08:39:58.586Z,18.20
2023-03-24T08:40:38.654Z,18.21
2023-03-24T08:41:18.476Z,18.12
2023-03-24T08:41:58.653Z,18.12
2023-03-24T08:42:38.474Z,18.17
2023-03-24T08:43:23.289Z,18.22
2023-03-24T08:44:06.872Z,18.27
2023-03-24T08:44:48.556Z,18.28
2023-03-24T08:45:33.471Z,18.29
2023-03-24T08:46:16.513Z,18.21
2023-03-24T08:46:56.481Z,18.24
2023-03-24T08:47:36.652Z,18.09
2023-03-24T08:48:17.484Z,18.31
2023-03-24T08:48:57.560Z,18.07
2023-03-24T08:49:37.494Z,18.23
2023-03-24T08:50:18.571Z,18.28
2023-03-24T08:50:58.466Z,18.23
2023-03-24T08:51:39.576Z,18.27
2023-03-24T08:52:20.440Z,18.09
2023-03-24T08:53:02.571Z,18.14
2023-03-24T08:53:42.490Z,18.33
2023-03-24T08:54:23.818Z,18.21
2023-03-24T08:55:04.524Z,18.30
2023-03-24T08:55:45.582Z,18.33
2023-03-24T08:56:27.497Z,18.39
2023-03-24T08:57:07.681Z,18.38
2023-03-24T08:57:47.463Z,18.38
2023-03-24T08:58:28.561Z,18.39
2023-03-24T08:59:08.490Z,18.49
2023-03-24T08:59:50.211Z,18.58
2023-03-24T09:00:32.486Z,18.42
2023-03-24T09:01:39.203Z,18.45
2023-03-24T09:02:52.595Z,18.44
2023-03-24T09:03:26.553Z,18.51
2023-03-24T09:04:01.485Z,18.35
2023-03-24T09:04:42.479Z,18.39
2023-03-24T09:05:20.026Z,18.46
2023-03-24T09:06:05.491Z,18.55
2023-03-24T09:06:45.599Z,18.48
2023-03-24T09:07:26.466Z,18.51
2023-03-24T09:08:08.044Z,18.62
2023-03-24T09:08:49.454Z,18.53
2023-03-24T09:09:29.538Z,18.62
2023-03-24T09:10:11.438Z,18.66
2023-03-24T09:10:52.621Z,18.63
2023-03-24T09:11:32.470Z,18.69
2023-03-24T09:12:13.531Z,18.66
2023-03-24T09:12:53.483Z,18.65
2023-03-24T09:13:33.612Z,18.77
2023-03-24T09:14:13.455Z,18.57
2023-03-24T09:14:57.591Z,18.71
2023-03-24T09:15:38.475Z,18.71
2023-03-24T09:16:19.607Z,18.76
2023-03-24T09:16:59.452Z,18.90
2023-03-24T09:17:40.655Z,18.81
2023-03-24T09:18:20.433Z,18.88
2023-03-24T09:19:01.760Z,18.92
2023-03-24T09:19:41.483Z,18.77
2023-03-24T09:20:22.556Z,18.78
2023-03-24T09:21:02.458Z,18.90
2023-03-24T09:21:42.794Z,18.77
2023-03-24T09:22:22.464Z,18.87
2023-03-24T09:23:02.547Z,18.75
2023-03-24T09:23:42.427Z,18.84
2023-03-24T09:24:23.551Z,18.78
2023-03-24T09:25:03.445Z,18.87
2023-03-24T09:25:44.536Z,18.76
2023-03-24T09:26:24.464Z,18.82
2023-03-24T09:27:05.660Z,18.86
2023-03-24T09:27:46.488Z,18.98
2023-03-24T09:28:28.579Z,18.93
2023-03-24T09:29:09.459Z,18.82
2023-03-24T09:29:49.516Z,18.74
2023-03-24T09:30:30.960Z,18.89
2023-03-24T09:31:12.561Z,19.00
2023-03-24T09:31:52.456Z,19.10
2023-03-24T09:32:34.060Z,19.20
2023-03-24T09:33:15.509Z,19.23
2023-03-24T09:33:55.579Z,19.35
2023-03-24T09:34:35.449Z,19.42
2023-03-24T09:35:16.619Z,19.51
2023-03-24T09:36:08.449Z,19.49
2023-03-24T09:36:49.532Z,19.40
2023-03-24T09:37:29.504Z,19.47
2023-03-24T09:38:13.250Z,19.63
2023-03-24T09:38:53.470Z,19.38
2023-03-24T09:39:33.554Z,19.39
2023-03-24T09:40:15.453Z,19.47
2023-03-24T09:41:03.192Z,19.59
2023-03-24T09:41:43.427Z,19.61
2023-03-24T09:42:30.560Z,19.64
2023-03-24T09:43:26.419Z,19.77
2023-03-24T09:44:17.506Z,19.70
2023-03-24T09:44:59.001Z,19.66
2023-03-24T09:46:03.443Z,19.68
2023-03-24T09:46:45.709Z,19.95
2023-03-24T09:48:00.489Z,19.92
2023-03-24T09:48:41.208Z,20.00
2023-03-24T09:49:41.430Z,19.89
2023-03-24T09:50:34.585Z,19.99